Time;durP1;ratioP1;P1;durP2;ratioP2;P2;SDS_P1;SDS_P2;PMS_P1;PMS_P2;Temp;Humidity;BMP_temperature;BMP_pressure;BME280_temperature;BME280_humidity;BME280_pressure;Samples;Min_cycle;Max_cycle;Signal;HPM_P1;HPM_P2
2023/07/26 00:01:38;;;;;;;1.48;1.05;;;22.60;64.00;;;;;;6293345;28;20362;-66
2023/07/26 00:04:38;;;;;;;1.25;1.00;;;22.60;64.00;;;;;;6292784;28;20099;-66
2023/07/26 00:07:39;;;;;;;1.10;0.82;;;22.60;64.00;;;;;;6293015;28;20024;-66
2023/07/26 00:10:47;;;;;;;1.27;0.90;;;22.60;64.00;;;;;;6293161;28;20025;-65
2023/07/26 00:13:48;;;;;;;1.27;0.88;;;22.60;64.00;;;;;;6292967;28;20032;-66
2023/07/26 00:16:49;;;;;;;1.40;0.90;;;22.60;64.90;;;;;;6292729;28;20025;-66
2023/07/26 00:19:50;;;;;;;1.52;0.93;;;22.60;64.00;;;;;;6292900;28;20021;-66
2023/07/26 00:22:50;;;;;;;1.60;0.93;;;22.60;64.00;;;;;;6292922;28;20644;-65
2023/07/26 00:25:51;;;;;;;1.42;0.98;;;22.60;64.00;;;;;;6292623;28;20645;-65
2023/07/26 00:28:52;;;;;;;1.25;0.77;;;22.60;64.00;;;;;;6292712;28;20025;-66
2023/07/26 00:31:52;;;;;;;1.42;1.08;;;22.60;64.00;;;;;;6292682;28;20525;-65
2023/07/26 00:34:53;;;;;;;1.00;0.85;;;22.60;64.00;;;;;;6291240;28;20500;-65
2023/07/26 00:37:54;;;;;;;1.50;0.88;;;22.60;64.10;;;;;;6291341;28;20435;-65
2023/07/26 00:40:54;;;;;;;1.13;0.80;;;22.60;64.00;;;;;;6292557;28;20095;-66
2023/07/26 00:43:55;;;;;;;1.02;0.60;;;22.60;64.10;;;;;;6292118;28;20029;-65
2023/07/26 00:46:56;;;;;;;1.52;1.08;;;22.50;63.90;;;;;;6292513;28;20513;-65
2023/07/26 00:49:57;;;;;;;1.95;0.98;;;22.60;64.00;;;;;;6292738;28;20033;-66
2023/07/26 00:52:58;;;;;;;1.33;0.90;;;22.60;64.00;;;;;;6292832;28;20563;-65
2023/07/26 00:55:59;;;;;;;1.48;0.80;;;22.60;64.00;;;;;;6292318;28;20024;-65
2023/07/26 00:59:00;;;;;;;1.20;0.80;;;22.60;64.00;;;;;;6292345;28;20047;-65
2023/07/26 01:02:01;;;;;;;1.40;1.00;;;22.60;64.00;;;;;;6294574;28;20075;-65
2023/07/26 01:05:03;;;;;;;1.52;0.98;;;22.60;64.00;;;;;;6296899;28;20381;-65
2023/07/26 01:08:16;;;;;;;1.75;0.90;;;22.60;64.00;;;;;;6296299;28;20111;-65
2023/07/26 01:11:27;;;;;;;1.17;0.73;;;22.60;64.10;;;;;;6297398;28;20024;-65
2023/07/26 01:14:36;;;;;;;1.35;1.02;;;22.60;64.00;;;;;;6297005;28;20020;-66
2023/07/26 01:17:37;;;;;;;1.40;0.90;;;22.50;63.90;;;;;;6272428;28;20505;-65
2023/07/26 01:20:38;;;;;;;1.65;1.08;;;22.60;64.10;;;;;;6281217;28;20055;-65
2023/07/26 01:23:39;;;;;;;1.23;1.00;;;22.50;63.90;;;;;;6296542;28;20031;-65
2023/07/26 01:26:40;;;;;;;1.02;0.82;;;22.60;64.10;;;;;;6296738;28;20382;-65
2023/07/26 01:29:40;;;;;;;2.10;1.05;;;22.60;64.10;;;;;;6296696;28;20524;-65
2023/07/26 01:32:43;;;;;;;1.25;0.88;;;22.60;64.00;;;;;;6296485;28;20509;-65
2023/07/26 01:35:45;;;;;;;0.88;0.70;;;22.60;64.10;;;;;;6296525;28;20032;-65
2023/07/26 01:38:47;;;;;;;0.98;0.70;;;22.60;64.10;;;;;;6296532;28;20028;-65
2023/07/26 01:41:48;;;;;;;0.90;0.65;;;22.60;64.10;;;;;;6296552;28;20037;-65
2023/07/26 01:44:48;;;;;;;1.45;0.95;;;22.60;64.10;;;;;;6296268;28;20017;-65
2023/07/26 01:47:50;;;;;;;1.40;1.10;;;22.60;64.10;;;;;;6296667;28;20555;-65
2023/07/26 01:50:51;;;;;;;1.25;0.80;;;22.50;63.90;;;;;;6296236;28;20025;-65
2023/07/26 01:53:51;;;;;;;1.20;0.90;;;22.60;64.10;;;;;;6296452;28;20036;-65
2023/07/26 01:56:52;;;;;;;0.90;0.80;;;22.60;64.10;;;;;;6295921;28;20470;-65
2023/07/26 01:59:53;;;;;;;1.25;0.85;;;22.60;64.10;;;;;;6296226;28;20082;-65
2023/07/26 02:02:54;;;;;;;1.27;0.77;;;22.60;64.00;;;;;;6295900;28;20075;-65
2023/07/26 02:05:55;;;;;;;1.58;0.75;;;22.60;64.10;;;;;;6294761;28;20495;-66
2023/07/26 02:08:56;;;;;;;1.25;0.93;;;22.60;64.10;;;;;;6296069;28;20024;-65
2023/07/26 02:11:57;;;;;;;1.30;0.60;;;22.50;63.90;;;;;;6295656;28;20028;-66
2023/07/26 02:14:59;;;;;;;1.00;0.88;;;22.60;64.10;;;;;;6295201;28;20591;-65
2023/07/26 02:18:00;;;;;;;2.03;1.02;;;22.50;63.90;;;;;;6295604;28;20099;-65
2023/07/26 02:21:00;;;;;;;1.23;0.82;;;22.60;64.00;;;;;;6296163;28;20038;-65
2023/07/26 02:24:01;;;;;;;1.48;1.00;;;22.60;64.10;;;;;;6295298;28;20361;-65
2023/07/26 02:27:01;;;;;;;2.08;1.10;;;22.60;64.10;;;;;;6293989;28;20025;-66
2023/07/26 02:30:02;;;;;;;1.50;0.88;;;22.60;64.10;;;;;;6295719;28;20632;-65
2023/07/26 02:33:03;;;;;;;1.35;1.00;;;22.50;63.90;;;;;;6295395;28;20052;-66
2023/07/26 02:36:04;;;;;;;1.23;0.98;;;22.50;63.90;;;;;;6295287;28;20020;-66
2023/07/26 02:39:05;;;;;;;1.48;0.90;;;22.60;64.10;;;;;;6295596;28;20437;-65
2023/07/26 02:42:05;;;;;;;1.35;0.80;;;22.50;63.90;;;;;;6295386;28;20017;-66
2023/07/26 02:45:06;;;;;;;1.23;0.98;;;22.60;64.10;;;;;;6294828;28;20426;-65
2023/07/26 02:48:07;;;;;;;1.38;0.85;;;22.50;63.90;;;;;;6294912;28;20024;-65
2023/07/26 02:51:08;;;;;;;1.10;0.85;;;22.60;64.10;;;;;;6294900;28;20020;-66
2023/07/26 02:54:08;;;;;;;2.03;0.80;;;22.50;63.90;;;;;;6294738;28;20035;-66
2023/07/26 02:57:09;;;;;;;1.17;0.90;;;22.60;64.10;;;;;;6294657;28;20059;-66
2023/07/26 03:00:10;;;;;;;1.30;0.85;;;22.50;63.90;;;;;;6293917;28;20054;-66
2023/07/26 03:03:11;;;;;;;1.55;1.00;;;22.60;64.10;;;;;;6294625;28;20516;-66
2023/07/26 03:06:12;;;;;;;1.20;0.90;;;22.60;64.10;;;;;;6294710;28;20016;-66
2023/07/26 03:09:13;;;;;;;0.95;0.73;;;22.60;64.90;;;;;;6296120;28;20099;-64
2023/07/26 03:12:14;;;;;;;2.38;1.10;;;22.60;64.10;;;;;;6295431;28;20060;-63
2023/07/26 03:15:15;;;;;;;1.75;0.70;;;22.50;63.90;;;;;;6294442;28;20029;-64
2023/07/26 03:18:15;;;;;;;1.25;0.85;;;22.60;64.10;;;;;;6296094;28;20025;-64
2023/07/26 03:21:16;;;;;;;1.42;0.90;;;22.50;63.90;;;;;;6295693;28;20384;-64
2023/07/26 03:24:17;;;;;;;2.35;1.08;;;22.60;64.10;;;;;;6294584;28;20020;-63
2023/07/26 03:27:17;;;;;;;0.82;0.77;;;22.60;64.10;;;;;;6295102;28;20028;-62
2023/07/26 03:30:18;;;;;;;0.93;0.73;;;22.60;64.10;;;;;;6295472;28;20608;-64
2023/07/26 03:33:19;;;;;;;0.70;0.57;;;22.50;63.90;;;;;;6294796;28;20045;-64
2023/07/26 03:36:20;;;;;;;0.95;0.70;;;22.60;64.10;;;;;;6295001;28;20029;-64
2023/07/26 03:39:21;;;;;;;0.93;0.70;;;22.60;64.10;;;;;;6295156;28;20028;-64
2023/07/26 03:42:21;;;;;;;1.00;0.88;;;22.60;64.10;;;;;;6294816;28;20024;-64
2023/07/26 03:45:22;;;;;;;1.70;1.15;;;22.60;64.10;;;;;;6294834;28;20112;-63
2023/07/26 03:48:22;;;;;;;1.13;0.93;;;22.60;64.10;;;;;;6294815;28;20043;-63
2023/07/26 03:51:23;;;;;;;1.25;0.80;;;22.60;64.10;;;;;;6294712;28;20025;-64
2023/07/26 03:54:24;;;;;;;1.50;0.90;;;22.50;63.90;;;;;;6294690;28;20064;-64
2023/07/26 03:57:24;;;;;;;1.70;1.20;;;22.60;64.00;;;;;;6294414;28;20032;-64
2023/07/26 04:00:40;;;;;;;1.00;0.82;;;22.60;64.10;;;;;;6294609;28;20029;-65
2023/07/26 04:03:41;;;;;;;2.50;0.82;;;22.60;64.10;;;;;;6294490;28;20046;-64
2023/07/26 04:06:42;;;;;;;1.35;0.90;;;22.50;64.00;;;;;;6294500;28;20025;-64
2023/07/26 04:09:43;;;;;;;3.58;0.80;;;22.60;64.10;;;;;;6294416;28;20078;-65
2023/07/26 04:12:43;;;;;;;1.08;0.90;;;22.50;63.90;;;;;;6294522;28;20024;-64
2023/07/26 04:15:44;;;;;;;1.30;0.90;;;22.60;64.10;;;;;;6294193;28;20071;-64
2023/07/26 04:18:45;;;;;;;1.10;0.70;;;22.60;64.10;;;;;;6294394;28;20452;-64
2023/07/26 04:21:46;;;;;;;1.05;0.85;;;22.60;64.10;;;;;;6294295;28;20499;-64
2023/07/26 04:24:46;;;;;;;1.42;0.90;;;22.60;64.10;;;;;;6294026;28;20023;-64
2023/07/26 04:27:47;;;;;;;1.13;0.80;;;22.60;64.10;;;;;;6293923;28;20013;-64
2023/07/26 04:30:48;;;;;;;1.02;0.88;;;22.50;63.90;;;;;;6294405;28;20024;-65
2023/07/26 04:33:49;;;;;;;1.30;0.80;;;22.60;64.10;;;;;;6293884;28;20040;-64
2023/07/26 04:36:49;;;;;;;1.20;0.90;;;22.60;64.10;;;;;;6293849;28;20021;-64
2023/07/26 04:39:50;;;;;;;0.95;0.70;;;22.50;63.90;;;;;;6293733;28;20104;-64
2023/07/26 04:42:51;;;;;;;0.77;0.60;;;22.50;63.90;;;;;;6294098;28;20064;-64
2023/07/26 04:45:52;;;;;;;1.20;0.80;;;22.60;64.00;;;;;;6293674;28;20031;-64
2023/07/26 04:48:53;;;;;;;1.20;0.80;;;22.60;64.10;;;;;;6293984;28;20029;-64
2023/07/26 04:51:53;;;;;;;1.55;0.85;;;22.60;64.10;;;;;;6287740;28;20036;-68
2023/07/26 04:54:54;;;;;;;1.35;0.88;;;22.60;64.10;;;;;;6293311;28;20040;-67
2023/07/26 04:57:55;;;;;;;1.40;0.80;;;22.60;64.10;;;;;;6293208;28;20385;-68
2023/07/26 05:00:55;;;;;;;1.40;1.00;;;22.60;63.10;;;;;;6293276;28;20032;-68
2023/07/26 05:03:56;;;;;;;1.70;0.70;;;22.60;63.30;;;;;;6293383;28;20477;-67
2023/07/26 05:06:57;;;;;;;1.23;0.70;;;22.50;63.30;;;;;;6293569;28;20019;-67
2023/07/26 05:09:58;;;;;;;3.13;1.10;;;22.50;62.70;;;;;;6293102;28;20052;-68
2023/07/26 05:12:59;;;;;;;1.60;0.88;;;22.50;63.70;;;;;;6293166;28;20121;-66
2023/07/26 05:15:59;;;;;;;1.80;1.10;;;22.50;63.40;;;;;;6291801;28;20120;-65
2023/07/26 05:19:00;;;;;;;1.75;1.15;;;22.50;63.10;;;;;;6292992;28;20245;-65
2023/07/26 05:22:01;;;;;;;3.75;1.17;;;22.50;62.90;;;;;;6293204;28;20484;-65
2023/07/26 05:25:02;;;;;;;2.25;1.10;;;22.50;61.80;;;;;;6292333;28;20029;-64
2023/07/26 05:28:03;;;;;;;3.25;1.10;;;22.50;62.80;;;;;;6292494;28;20017;-65
2023/07/26 05:31:04;;;;;;;2.28;0.95;;;22.50;62.50;;;;;;6291522;28;20547;-64
2023/07/26 05:34:06;;;;;;;3.83;1.25;;;22.50;61.20;;;;;;6292660;28;20063;-64
2023/07/26 05:37:07;;;;;;;5.22;1.45;;;22.50;60.50;;;;;;6292763;28;20066;-64
2023/07/26 05:40:08;;;;;;;2.40;1.10;;;22.50;60.20;;;;;;6291854;28;20412;-64
2023/07/26 05:43:08;;;;;;;2.75;1.38;;;22.50;60.30;;;;;;6291229;28;20025;-64
2023/07/26 05:46:09;;;;;;;3.03;1.13;;;22.50;61.50;;;;;;6291931;28;20091;-64
2023/07/26 05:49:10;;;;;;;2.08;1.00;;;22.60;61.80;;;;;;6294916;28;20485;-63
2023/07/26 05:52:11;;;;;;;3.90;1.25;;;22.60;61.90;;;;;;6295842;28;20024;-64
2023/07/26 05:55:12;;;;;;;2.53;1.13;;;22.60;62.10;;;;;;6296795;28;20411;-64
2023/07/26 05:58:14;;;;;;;2.95;1.30;;;22.60;62.20;;;;;;6295919;28;20032;-64
2023/07/26 06:01:15;;;;;;;3.08;1.10;;;22.60;62.20;;;;;;6298357;28;20032;-64
2023/07/26 06:04:15;;;;;;;3.55;1.25;;;22.60;62.10;;;;;;6297718;28;20016;-64
2023/07/26 06:07:16;;;;;;;3.55;1.00;;;22.60;62.20;;;;;;6298659;28;20021;-64
2023/07/26 06:10:17;;;;;;;1.73;1.17;;;22.60;62.30;;;;;;6297659;28;20030;-64
2023/07/26 06:13:18;;;;;;;2.55;1.27;;;22.60;61.40;;;;;;6298675;28;20107;-65
2023/07/26 06:16:19;;;;;;;3.28;1.33;;;22.60;61.50;;;;;;6298723;28;20028;-65
2023/07/26 06:19:21;;;;;;;8.23;1.90;;;22.60;58.70;;;;;;6298525;28;20052;-65
2023/07/26 06:22:22;;;;;;;3.22;1.35;;;22.70;56.40;;;;;;6296582;28;20465;-65
2023/07/26 06:25:22;;;;;;;5.90;2.13;;;22.70;54.60;;;;;;6298259;28;20020;-65
2023/07/26 06:28:23;;;;;;;6.00;1.70;;;22.80;54.00;;;;;;6298718;28;20028;-65
2023/07/26 06:31:24;;;;;;;5.53;1.75;;;22.90;52.90;;;;;;6298422;28;20557;-65
2023/07/26 06:34:25;;;;;;;4.88;1.60;;;22.90;52.20;;;;;;6298080;28;20556;-65
2023/07/26 06:37:25;;;;;;;6.28;1.88;;;23.00;52.20;;;;;;6298224;28;20031;-65
2023/07/26 06:40:26;;;;;;;7.57;1.50;;;23.00;51.90;;;;;;6298275;28;20029;-64
2023/07/26 06:43:27;;;;;;;6.63;1.63;;;23.00;51.80;;;;;;6298012;28;20493;-65
2023/07/26 06:46:28;;;;;;;5.55;1.83;;;23.10;51.50;;;;;;6296069;28;20016;-65
2023/07/26 06:49:29;;;;;;;7.05;1.40;;;23.10;51.20;;;;;;6297490;28;20028;-64
2023/07/26 06:52:30;;;;;;;6.45;1.77;;;23.10;50.80;;;;;;6298120;28;20445;-65
2023/07/26 06:55:35;;;;;;;4.63;1.38;;;23.10;50.70;;;;;;6295546;28;20113;-65
2023/07/26 06:58:35;;;;;;;4.78;1.10;;;23.10;50.70;;;;;;6297420;28;20032;-65
2023/07/26 07:01:36;;;;;;;5.68;1.38;;;23.10;50.40;;;;;;6297739;28;20052;-64
2023/07/26 07:04:37;;;;;;;4.22;1.33;;;23.20;50.60;;;;;;6297588;28;20053;-63
2023/07/26 07:07:38;;;;;;;4.10;1.40;;;23.20;50.30;;;;;;6297311;28;20051;-66
2023/07/26 07:10:38;;;;;;;4.47;1.48;;;23.20;50.20;;;;;;6295753;28;20110;-66
2023/07/26 07:13:39;;;;;;;4.72;1.70;;;23.30;50.20;;;;;;6294309;28;20046;-66
2023/07/26 07:16:40;;;;;;;4.95;1.58;;;23.20;50.10;;;;;;6296609;28;20116;-66
2023/07/26 07:19:40;;;;;;;5.65;1.70;;;23.20;49.90;;;;;;6297957;28;20024;-66
2023/07/26 07:22:41;;;;;;;5.18;1.23;;;23.20;50.20;;;;;;6297290;28;20095;-65
2023/07/26 07:25:42;;;;;;;6.50;1.65;;;23.20;50.10;;;;;;6296101;28;20043;-65
2023/07/26 07:28:43;;;;;;;3.80;1.30;;;23.20;50.20;;;;;;6297318;28;20493;-65
2023/07/26 07:31:44;;;;;;;4.10;1.48;;;23.20;50.20;;;;;;6296980;28;20118;-65
2023/07/26 07:34:45;;;;;;;4.85;1.52;;;23.20;50.00;;;;;;6296378;28;20040;-66
2023/07/26 07:37:47;;;;;;;7.43;1.75;;;23.20;49.90;;;;;;6297101;28;20035;-63
2023/07/26 07:40:48;;;;;;;4.35;1.50;;;23.20;50.20;;;;;;6296586;28;20204;-61
2023/07/26 07:43:49;;;;;;;4.00;1.40;;;23.20;49.90;;;;;;6296594;28;20027;-63
2023/07/26 07:46:50;;;;;;;4.63;1.30;;;23.30;50.00;;;;;;6296277;28;20028;-63
2023/07/26 07:49:51;;;;;;;3.10;1.10;;;23.30;50.00;;;;;;6297301;28;20082;-63
2023/07/26 07:52:51;;;;;;;5.38;1.38;;;23.40;50.10;;;;;;6296910;28;20033;-63
2023/07/26 07:55:52;;;;;;;3.72;1.45;;;23.40;50.20;;;;;;6296987;28;20031;-62
2023/07/26 07:58:53;;;;;;;3.25;1.40;;;23.40;50.20;;;;;;6296667;28;20016;-63
2023/07/26 08:01:54;;;;;;;6.40;1.48;;;23.50;50.40;;;;;;6296997;28;20480;-62
2023/07/26 08:04:54;;;;;;;2.67;1.20;;;23.50;50.50;;;;;;6296737;28;20662;-63
2023/07/26 08:07:55;;;;;;;3.03;1.13;;;23.50;50.40;;;;;;6296588;28;20075;-63
2023/07/26 08:10:55;;;;;;;1.25;0.80;;;23.50;50.50;;;;;;6294639;28;20032;-64
2023/07/26 08:13:56;;;;;;;2.80;1.17;;;23.50;50.60;;;;;;6296573;28;20032;-62
2023/07/26 08:16:57;;;;;;;2.90;1.08;;;23.50;50.60;;;;;;6296318;28;20545;-63
2023/07/26 08:19:58;;;;;;;1.75;0.88;;;23.50;50.70;;;;;;6296674;28;20031;-62
2023/07/26 08:22:59;;;;;;;3.65;1.17;;;23.50;50.80;;;;;;6296358;28;20492;-62
2023/07/26 08:26:03;;;;;;;3.05;1.40;;;23.50;50.70;;;;;;6296319;28;20488;-62
2023/07/26 08:29:04;;;;;;;1.95;1.05;;;23.50;50.60;;;;;;6295157;28;20028;-63
2023/07/26 08:32:05;;;;;;;2.22;1.00;;;23.50;50.70;;;;;;6296501;28;20489;-63
2023/07/26 08:35:06;;;;;;;2.85;1.25;;;23.50;50.70;;;;;;6295945;28;20060;-61
2023/07/26 08:38:07;;;;;;;2.40;1.20;;;23.60;50.70;;;;;;6295100;28;20029;-63
2023/07/26 08:41:08;;;;;;;0.93;0.82;;;23.50;50.80;;;;;;6296231;28;20024;-63
2023/07/26 08:44:09;;;;;;;1.48;1.00;;;23.50;50.80;;;;;;6296307;28;20024;-62
2023/07/26 08:47:10;;;;;;;1.45;1.00;;;23.50;50.80;;;;;;6295973;28;20095;-63
2023/07/26 08:50:11;;;;;;;2.25;1.08;;;23.50;50.80;;;;;;6296230;28;20493;-62
2023/07/26 08:53:13;;;;;;;1.55;0.98;;;23.50;50.90;;;;;;6294885;28;20027;-62
2023/07/26 08:56:15;;;;;;;2.72;0.80;;;23.50;50.80;;;;;;6295851;28;20117;-62
2023/07/26 08:59:16;;;;;;;1.45;0.95;;;23.50;51.00;;;;;;6294468;28;20031;-63
2023/07/26 09:02:19;;;;;;;1.58;1.00;;;23.50;50.90;;;;;;6295947;28;20048;-63
2023/07/26 09:05:19;;;;;;;1.15;0.80;;;23.50;50.90;;;;;;6295971;28;20020;-62
2023/07/26 09:08:20;;;;;;;1.75;1.08;;;23.50;50.80;;;;;;6296023;28;20021;-63
2023/07/26 09:11:23;;;;;;;1.50;1.00;;;23.60;50.80;;;;;;6295687;28;20028;-63
2023/07/26 09:14:29;;;;;;;2.05;0.93;;;23.60;50.90;;;;;;6295316;28;20017;-63
2023/07/26 09:17:43;;;;;;;1.45;0.90;;;23.60;51.00;;;;;;6291321;28;20021;-64
2023/07/26 09:20:44;;;;;;;3.97;0.93;;;23.60;51.20;;;;;;6291741;28;20057;-64
2023/07/26 09:23:45;;;;;;;1.17;0.80;;;23.60;51.20;;;;;;6297125;28;20500;-63
2023/07/26 09:26:46;;;;;;;1.73;0.82;;;23.50;51.10;;;;;;6299918;28;20024;-64
2023/07/26 09:29:54;;;;;;;4.70;1.13;;;23.50;51.10;;;;;;6299531;28;20031;-65
2023/07/26 09:32:56;;;;;;;1.63;0.90;;;23.60;51.10;;;;;;6299952;28;20175;-65
2023/07/26 09:35:57;;;;;;;1.52;1.00;;;23.60;51.20;;;;;;6298975;28;20025;-65
2023/07/26 09:38:57;;;;;;;1.67;0.80;;;23.60;51.10;;;;;;6299317;28;20104;-63
2023/07/26 09:42:08;;;;;;;1.67;0.80;;;23.60;51.10;;;;;;6299451;28;20026;-64
2023/07/26 09:45:19;;;;;;;2.00;1.05;;;23.60;51.10;;;;;;6299225;28;20017;-64
2023/07/26 09:48:20;;;;;;;1.83;0.75;;;23.60;50.90;;;;;;6298293;28;20021;-64
2023/07/26 09:51:21;;;;;;;1.85;1.10;;;23.60;51.00;;;;;;6299200;28;20503;-64
2023/07/26 09:54:22;;;;;;;1.67;1.00;;;23.60;51.10;;;;;;6284657;28;20481;-65
2023/07/26 09:57:23;;;;;;;0.98;0.80;;;23.60;51.10;;;;;;6298825;28;20028;-64
2023/07/26 10:00:26;;;;;;;2.67;1.10;;;23.60;51.10;;;;;;6298804;28;20039;-64
2023/07/26 10:03:30;;;;;;;1.13;0.80;;;23.60;51.20;;;;;;6298707;28;20055;-66
2023/07/26 10:06:35;;;;;;;0.93;0.80;;;23.60;51.10;;;;;;6298640;28;20017;-63
2023/07/26 10:09:39;;;;;;;1.88;1.02;;;23.60;51.20;;;;;;6298612;28;20453;-62
2023/07/26 10:12:44;;;;;;;1.65;1.00;;;23.60;51.10;;;;;;6298790;28;20062;-63
2023/07/26 10:15:47;;;;;;;;;;;23.60;51.00;;;;;;6298727;28;20135;-63
2023/07/26 10:18:51;;;;;;;1.95;0.80;;;23.60;51.00;;;;;;6298594;28;19916;-62
2023/07/26 10:21:52;;;;;;;2.58;0.93;;;23.60;51.00;;;;;;6291407;28;20478;-61
2023/07/26 10:24:53;;;;;;;2.30;1.20;;;23.60;51.00;;;;;;6297184;28;20626;-64
2023/07/26 10:27:54;;;;;;;1.80;0.80;;;23.60;50.90;;;;;;6296846;28;20066;-64
2023/07/26 10:30:55;;;;;;;1.10;0.68;;;23.60;50.90;;;;;;6297499;28;20028;-63
2023/07/26 10:33:57;;;;;;;1.77;0.95;;;23.60;51.00;;;;;;6296317;28;20076;-62
2023/07/26 10:36:58;;;;;;;2.88;1.02;;;23.60;50.90;;;;;;6297163;28;20491;-63
2023/07/26 10:39:59;;;;;;;2.22;0.98;;;23.60;51.10;;;;;;6297016;28;20020;-64
2023/07/26 10:43:20;;;;;;;2.08;0.98;;;23.60;51.00;;;;;;6296070;28;20553;-63
2023/07/26 10:46:21;;;;;;;1.60;0.80;;;23.60;50.90;;;;;;6295977;28;20033;-65
2023/07/26 10:49:26;;;;;;;1.20;0.90;;;23.60;50.90;;;;;;6297027;28;20027;-64
2023/07/26 10:52:37;;;;;;;1.45;0.90;;;23.60;50.80;;;;;;6297110;28;20032;-64
2023/07/26 10:55:38;;;;;;;2.35;1.00;;;23.60;50.90;;;;;;6296677;28;20032;-64
2023/07/26 10:58:56;;;;;;;1.30;1.00;;;23.60;50.90;;;;;;6296667;28;20111;-65
2023/07/26 11:02:02;;;;;;;1.23;0.90;;;23.60;50.90;;;;;;6297017;28;20024;-63
2023/07/26 11:05:06;;;;;;;1.60;1.00;;;23.60;50.90;;;;;;6296487;28;20645;-62
2023/07/26 11:08:08;;;;;;;1.50;1.00;;;23.60;50.80;;;;;;6296493;28;20386;-62
2023/07/26 11:11:08;;;;;;;1.98;1.05;;;23.60;50.90;;;;;;6295942;28;20036;-63
2023/07/26 11:14:16;;;;;;;1.98;1.15;;;23.60;50.80;;;;;;6295044;28;20056;-63
2023/07/26 11:17:17;;;;;;;3.05;1.60;;;23.60;51.60;;;;;;6296307;28;20028;-64
2023/07/26 11:20:18;;;;;;;3.63;1.58;;;23.60;50.80;;;;;;6296141;28;20031;-64
2023/07/26 11:23:24;;;;;;;2.95;1.35;;;23.60;50.80;;;;;;6296058;28;20389;-64
2023/07/26 11:26:25;;;;;;;4.55;1.60;;;23.70;50.80;;;;;;6295973;28;20035;-64
2023/07/26 11:29:25;;;;;;;2.70;1.60;;;23.70;50.80;;;;;;6296025;28;20099;-64
2023/07/26 11:32:28;;;;;;;4.97;2.00;;;23.70;50.90;;;;;;6294461;28;20025;-64
2023/07/26 11:35:38;;;;;;;4.03;1.80;;;23.70;50.70;;;;;;6296035;28;20044;-62
2023/07/26 11:38:42;;;;;;;5.15;2.00;;;23.70;50.70;;;;;;6295408;28;20104;-63
2023/07/26 11:41:43;;;;;;;5.13;1.90;;;23.70;50.70;;;;;;6296148;28;20048;-63
2023/07/26 11:44:44;;;;;;;4.75;1.90;;;23.70;50.70;;;;;;6294042;28;20488;-63
2023/07/26 11:47:46;;;;;;;4.80;1.85;;;23.70;50.70;;;;;;6295245;28;20049;-64
2023/07/26 11:50:48;;;;;;;5.35;2.13;;;23.60;51.30;;;;;;6295474;28;20032;-64
2023/07/26 11:53:54;;;;;;;3.03;1.60;;;23.60;50.60;;;;;;6295374;28;20382;-64
2023/07/26 11:56:55;;;;;;;8.48;2.13;;;23.60;50.50;;;;;;6295217;28;20020;-64
2023/07/26 12:00:01;;;;;;;5.55;2.28;;;23.60;50.70;;;;;;6295394;28;20499;-64
2023/07/26 12:03:04;;;;;;;3.72;1.88;;;23.70;50.60;;;;;;6295477;28;20025;-63
2023/07/26 12:06:06;;;;;;;3.92;1.70;;;23.60;50.60;;;;;;6295083;28;20017;-64
2023/07/26 12:09:11;;;;;;;5.38;2.17;;;23.70;50.70;;;;;;6295914;28;20222;-65
2023/07/26 12:12:11;;;;;;;4.43;2.05;;;23.60;50.50;;;;;;6295680;28;20032;-66
2023/07/26 12:15:12;;;;;;;4.43;2.10;;;23.70;50.60;;;;;;6295723;28;20086;-65
2023/07/26 12:18:13;;;;;;;3.63;1.88;;;23.60;50.30;;;;;;6295487;28;20033;-65
2023/07/26 12:21:14;;;;;;;4.93;2.25;;;23.70;50.30;;;;;;6293868;28;20044;-65
2023/07/26 12:24:15;;;;;;;4.68;2.20;;;23.70;50.20;;;;;;6294249;28;20021;-65
2023/07/26 12:27:16;;;;;;;3.42;1.65;;;23.70;50.10;;;;;;6294724;28;20066;-65
2023/07/26 12:30:18;;;;;;;5.40;1.95;;;23.60;50.10;;;;;;6294290;28;20074;-65
2023/07/26 12:33:18;;;;;;;4.68;2.10;;;23.60;50.00;;;;;;6294625;28;20132;-65
2023/07/26 12:36:19;;;;;;;3.05;1.75;;;23.70;50.00;;;;;;6294272;28;20024;-65
2023/07/26 12:39:21;;;;;;;4.28;1.98;;;23.70;50.00;;;;;;6294722;28;20024;-64
2023/07/26 12:42:22;;;;;;;4.80;2.47;;;23.70;49.90;;;;;;6295365;28;20497;-63
2023/07/26 12:45:23;;;;;;;4.82;2.00;;;23.60;49.70;;;;;;6294746;28;20024;-63
2023/07/26 12:48:26;;;;;;;8.15;2.40;;;23.70;49.60;;;;;;6293112;28;20377;-63
2023/07/26 12:51:27;;;;;;;4.32;2.03;;;23.70;49.60;;;;;;6294065;28;20024;-63
2023/07/26 12:54:28;;;;;;;5.75;1.75;;;23.70;49.50;;;;;;6295022;28;20032;-63
2023/07/26 12:57:29;;;;;;;3.78;1.67;;;23.60;49.20;;;;;;6296174;28;20120;-63
2023/07/26 13:00:30;;;;;;;3.97;1.80;;;23.70;49.40;;;;;;6299210;28;20493;-63
2023/07/26 13:03:31;;;;;;;3.67;1.80;;;23.70;49.20;;;;;;6299549;28;20052;-62
2023/07/26 13:06:32;;;;;;;4.20;1.70;;;23.70;49.10;;;;;;6299420;28;20401;-62
2023/07/26 13:09:32;;;;;;;2.92;1.33;;;23.70;49.70;;;;;;6299295;28;20103;-62
2023/07/26 13:12:33;;;;;;;2.65;1.63;;;23.70;48.80;;;;;;6298752;28;20071;-63
2023/07/26 13:15:34;;;;;;;3.42;1.60;;;23.70;48.70;;;;;;6299208;28;20036;-63
2023/07/26 13:18:35;;;;;;;3.47;1.73;;;23.70;48.90;;;;;;6299042;28;20500;-64
2023/07/26 13:21:35;;;;;;;3.25;1.65;;;23.70;49.00;;;;;;6299395;28;20092;-62
2023/07/26 13:24:36;;;;;;;2.97;1.40;;;23.70;49.10;;;;;;6297956;28;20016;-63
2023/07/26 13:27:39;;;;;;;2.55;1.20;;;23.60;49.10;;;;;;6299205;28;20493;-64
2023/07/26 13:30:39;;;;;;;4.47;1.92;;;23.60;49.30;;;;;;6298842;28;20029;-63
2023/07/26 13:33:40;;;;;;;3.03;1.58;;;23.60;49.50;;;;;;6299046;28;20067;-63
2023/07/26 13:36:41;;;;;;;3.75;1.83;;;23.60;49.60;;;;;;6299029;28;20485;-63
2023/07/26 13:39:44;;;;;;;3.53;1.60;;;23.60;49.70;;;;;;6298748;28;20146;-63
2023/07/26 13:42:45;;;;;;;4.35;1.55;;;23.60;49.80;;;;;;6298809;28;20112;-63
2023/07/26 13:45:46;;;;;;;3.05;1.50;;;23.60;49.80;;;;;;6298701;28;20028;-63
2023/07/26 13:48:47;;;;;;;4.22;1.65;;;23.60;49.90;;;;;;6298398;28;20020;-63
2023/07/26 13:51:47;;;;;;;3.08;1.55;;;23.60;49.80;;;;;;6297735;28;20035;-71
2023/07/26 13:54:48;;;;;;;3.17;1.50;;;23.60;49.80;;;;;;6296338;28;20025;-65
2023/07/26 13:57:49;;;;;;;4.30;1.77;;;23.70;49.90;;;;;;6297154;28;20020;-65
2023/07/26 14:00:50;;;;;;;2.50;1.60;;;23.70;49.70;;;;;;6296762;28;20024;-65
2023/07/26 14:03:51;;;;;;;2.28;1.40;;;23.70;49.70;;;;;;6296559;28;20028;-65
2023/07/26 14:06:52;;;;;;;2.97;1.73;;;23.60;49.60;;;;;;6295284;28;20035;-65
2023/07/26 14:09:52;;;;;;;2.67;1.48;;;23.60;49.40;;;;;;6294404;28;20028;-64
2023/07/26 14:12:53;;;;;;;3.47;1.77;;;23.70;49.40;;;;;;6280715;28;20107;-64
2023/07/26 14:15:54;;;;;;;2.58;1.50;;;23.70;49.40;;;;;;6290268;28;20086;-65
2023/07/26 14:18:55;;;;;;;2.88;1.50;;;23.70;49.40;;;;;;6295998;28;20605;-64
2023/07/26 14:21:56;;;;;;;1.98;1.25;;;23.60;49.40;;;;;;6296205;28;20035;-65
2023/07/26 14:24:57;;;;;;;2.42;1.30;;;23.60;49.50;;;;;;6295924;28;20409;-65
2023/07/26 14:27:57;;;;;;;2.53;1.48;;;23.60;49.60;;;;;;6296239;28;20025;-64
2023/07/26 14:30:58;;;;;;;5.20;1.45;;;23.70;49.60;;;;;;6297449;28;20035;-64
2023/07/26 14:33:59;;;;;;;2.63;1.33;;;23.60;49.60;;;;;;6297572;28;20155;-64
2023/07/26 14:37:00;;;;;;;3.30;1.27;;;23.60;49.70;;;;;;6298119;28;20024;-64
2023/07/26 14:40:00;;;;;;;3.53;1.70;;;23.60;49.60;;;;;;6297308;28;20515;-64
2023/07/26 14:43:02;;;;;;;3.25;1.50;;;23.60;49.70;;;;;;6297752;28;20024;-64
2023/07/26 14:46:03;;;;;;;2.97;1.35;;;23.60;49.60;;;;;;6297401;28;20021;-64
2023/07/26 14:49:04;;;;;;;2.38;1.40;;;23.60;49.60;;;;;;6297496;28;20401;-64
2023/07/26 14:52:05;;;;;;;3.03;1.40;;;23.60;49.50;;;;;;6297011;28;20098;-63
2023/07/26 14:55:06;;;;;;;6.22;1.27;;;23.60;49.40;;;;;;6297187;28;20032;-64
2023/07/26 14:58:07;;;;;;;2.75;1.60;;;23.60;49.50;;;;;;6296970;28;20050;-64
2023/07/26 15:01:07;;;;;;;3.33;1.70;;;23.60;49.30;;;;;;6296696;28;20423;-64
2023/07/26 15:04:08;;;;;;;5.03;1.60;;;23.70;49.40;;;;;;6296944;28;20025;-64
2023/07/26 15:07:09;;;;;;;1.63;1.30;;;23.70;49.20;;;;;;6296954;28;20035;-64
2023/07/26 15:10:10;;;;;;;2.38;1.30;;;23.60;48.90;;;;;;6296182;28;20146;-64
2023/07/26 15:13:10;;;;;;;2.20;1.00;;;23.70;48.80;;;;;;6296722;28;20036;-64
2023/07/26 15:16:11;;;;;;;3.22;1.48;;;23.60;48.60;;;;;;6296795;28;20036;-64
2023/07/26 15:19:12;;;;;;;2.75;1.40;;;23.60;48.50;;;;;;6296380;28;20043;-64
2023/07/26 15:22:12;;;;;;;3.53;1.70;;;23.60;48.50;;;;;;6295344;28;20092;-65
2023/07/26 15:25:13;;;;;;;2.00;1.20;;;23.60;48.40;;;;;;6296809;28;20761;-64
2023/07/26 15:28:14;;;;;;;4.05;1.48;;;23.60;48.40;;;;;;6296505;28;20485;-64
2023/07/26 15:31:15;;;;;;;7.10;1.60;;;23.60;48.40;;;;;;6296018;28;20033;-64
2023/07/26 15:34:15;;;;;;;3.35;1.50;;;23.70;48.50;;;;;;6294672;28;20056;-64
2023/07/26 15:37:16;;;;;;;5.40;1.58;;;23.60;48.50;;;;;;6295955;28;20503;-64
2023/07/26 15:40:17;;;;;;;2.03;1.23;;;23.60;48.50;;;;;;6295288;28;20087;-64
2023/07/26 15:43:18;;;;;;;5.00;1.30;;;23.60;48.50;;;;;;6296194;28;20108;-64
2023/07/26 15:46:19;;;;;;;1.52;1.02;;;23.60;48.50;;;;;;6296084;28;20028;-64